Tropical Cyclones
[Index]
Season 2019-2020 Tropical Cyclone MANGGA Track Map
Season 2019-2020 Summaries (Operational Data): [AU] [SIO] [SPAC] [SH]
<<- Previous TC | 2019-2020 Season | Next TC ->>

click for intensity scale information  Lat/long Grid: Show Hide

 Date Labels: Show Hide

Operational Tropical Cyclone Data

Name: MANGGA
Number: 2027

17 May 2020 00:00 UTC to 24 May 2020 00:00 UTC

    date/time    lat    long     hPa   cat  kts
2020-05-17 00    4.4    95.8    1010         15          
2020-05-17 06    4.6    95.1    1010         15          
2020-05-17 12    4.7    94.5    1007         15          
2020-05-17 18    4.8    93.7    1010         15          
2020-05-18 00    4.9    93.1    1005         15          
2020-05-18 06    5.1    92.3    1005         15          
2020-05-18 12    5.4    91.7    1010         15          
2020-05-18 18    4.9    94.8    1005         15          
2020-05-19 00    5.0    94.0    1004         15          
2020-05-19 06    5.2    93.2    1010         15          
2020-05-19 12    5.6    92.7    1010         15          
2020-05-19 18    6.0    92.3    1005         20          
2020-05-20 00    6.2    92.3    1003         20          
2020-05-20 06    6.5    92.2    1002         20          
2020-05-20 12    6.9    91.9    1000         30          
2020-05-20 18    7.6    91.8    1000         30          
2020-05-21 00    8.3    91.9     999    1    35          
2020-05-21 06    8.8    92.2     998    1    35          
2020-05-21 12    9.3    92.6     998    1    35          
2020-05-21 18    9.8    93.1     998    1    35          
2020-05-22 00   10.5    93.7     997    1    35          
2020-05-22 06   11.4    94.3     999    1    35          
2020-05-22 12   12.5    95.2    1000    1    35          
2020-05-22 18   14.2    95.9     998    1    35          
2020-05-23 00   15.9    97.2     996    1    35          
2020-05-23 06   17.6    98.8     998    1    35          
2020-05-23 12   19.2   100.8     998    1    35          
2020-05-23 18   21.6   104.7     996    1    35          
2020-05-24 00   24.0   108.7     996    1    35          
Winds are 10-min average.

Tropical cyclone tracks developed by Michael Bath using operational warnings and advisories and Google Maps.


Document: tropical_cyclone_mangga.htm
Updated: 17 June 2020
[Australian Severe Weather index] [Copyright Notice] [Email Contacts] [Search This Site] [Privacy Policy]


Main Index Home Page Stock Weather Photos Extreme Storms Discussion Storm News and Storm Chasing Reports Tropical Cyclones / Hurricanes / Typhoons Weather Data and Links Wild Fires / Bushfires Weather Observation Techniques Weather Picture Catalogue Tornado Pictures and Reports Stock Video Footage and DVDs for sale